Time;durP1;ratioP1;P1;durP2;ratioP2;P2;SDS_P1;SDS_P2;PMS_P1;PMS_P2;Temp;Humidity;BMP_temperature;BMP_pressure;BME280_temperature;BME280_humidity;BME280_pressure;Samples;Min_cycle;Max_cycle;Signal;HPM_P1;HPM_P2
2023/03/29 00:00:34;;;;;;;4.10;3.70;;;5.70;99.90;;;;;;4936283;28;95391;-29
2023/03/29 00:03:02;;;;;;;4.05;3.55;;;5.70;99.90;;;;;;4936546;28;92180;-32
2023/03/29 00:05:32;;;;;;;7.65;3.78;;;5.80;99.90;;;;;;4937329;28;92176;-31
2023/03/29 00:08:00;;;;;;;5.80;4.30;;;5.80;99.90;;;;;;4937150;28;95889;-31
2023/03/29 00:10:26;;;;;;;5.90;3.40;;;5.70;99.90;;;;;;4936703;28;94931;-31
2023/03/29 00:12:52;;;;;;;7.95;3.45;;;5.70;99.90;;;;;;4936945;28;94987;-30
2023/03/29 00:15:18;;;;;;;5.40;3.67;;;5.70;99.90;;;;;;4938810;28;92692;-32
2023/03/29 00:17:44;;;;;;;5.70;3.58;;;5.70;99.90;;;;;;4922799;28;95201;-31
2023/03/29 00:20:11;;;;;;;5.45;3.92;;;5.70;99.90;;;;;;4939659;28;94284;-30
2023/03/29 00:22:38;;;;;;;5.65;4.20;;;5.70;99.90;;;;;;4939706;28;93583;-32
2023/03/29 00:25:08;;;;;;;4.00;3.47;;;5.70;99.90;;;;;;4939673;28;94200;-29
2023/03/29 00:27:33;;;;;;;4.15;3.30;;;5.70;99.90;;;;;;4940438;28;95546;-30
2023/03/29 00:30:01;;;;;;;5.35;4.47;;;5.70;99.90;;;;;;4939725;28;93413;-30
2023/03/29 00:32:27;;;;;;;4.20;2.77;;;5.70;99.90;;;;;;4939968;28;93742;-30
2023/03/29 00:34:53;;;;;;;5.45;3.58;;;5.70;99.90;;;;;;4940014;28;93501;-32
2023/03/29 00:37:19;;;;;;;6.20;3.30;;;5.70;99.90;;;;;;4921730;28;94720;-30
2023/03/29 00:39:45;;;;;;;14.25;4.13;;;5.60;99.90;;;;;;4940071;28;94008;-34
2023/03/29 00:42:13;;;;;;;6.15;3.63;;;5.60;99.90;;;;;;4940569;28;92722;-30
2023/03/29 00:45:08;;;;;;;4.53;3.17;;;5.60;99.90;;;;;;4939616;28;93581;-29
2023/03/29 00:47:49;;;;;;;4.97;4.03;;;5.70;99.90;;;;;;4939207;28;95750;-30
2023/03/29 00:50:24;;;;;;;4.63;3.83;;;5.70;99.90;;;;;;4939225;28;94167;-29
2023/03/29 00:53:02;;;;;;;4.13;3.72;;;5.60;99.90;;;;;;4939945;28;93560;-30
2023/03/29 00:55:34;;;;;;;6.30;3.85;;;5.60;99.90;;;;;;4940303;28;93681;-28
2023/03/29 00:58:03;;;;;;;5.07;4.57;;;5.60;99.90;;;;;;4939226;28;94796;-34
2023/03/29 01:00:36;;;;;;;5.78;4.13;;;5.60;99.90;;;;;;4939191;28;94629;-33
2023/03/29 01:03:12;;;;;;;3.92;3.35;;;5.60;99.90;;;;;;4939159;28;95249;-34
2023/03/29 01:05:43;;;;;;;4.88;3.35;;;5.60;99.90;;;;;;4940183;28;93944;-32
2023/03/29 01:08:16;;;;;;;4.78;4.18;;;5.60;99.90;;;;;;4939127;28;94447;-30
2023/03/29 01:10:47;;;;;;;4.50;3.28;;;5.60;99.90;;;;;;4939096;28;94286;-31
2023/03/29 01:13:18;;;;;;;5.65;3.88;;;5.60;99.90;;;;;;4939676;28;93116;-29
2023/03/29 01:15:45;;;;;;;6.38;4.30;;;5.60;99.90;;;;;;4939136;28;92103;-32
2023/03/29 01:18:12;;;;;;;6.10;5.03;;;5.60;99.90;;;;;;4939403;28;94720;-31
2023/03/29 01:21:01;;;;;;;4.35;3.28;;;5.60;99.90;;;;;;4921707;28;95106;-31
2023/03/29 01:23:42;;;;;;;4.40;4.00;;;5.60;99.90;;;;;;4939129;28;93962;-33
2023/03/29 01:26:20;;;;;;;4.88;3.65;;;5.60;99.90;;;;;;4939054;28;93331;-31
2023/03/29 01:28:58;;;;;;;4.88;4.38;;;5.60;99.90;;;;;;4938360;28;94872;-32
2023/03/29 01:31:30;;;;;;;7.05;4.65;;;5.60;99.90;;;;;;4939192;28;94565;-30
2023/03/29 01:34:12;;;;;;;5.38;4.65;;;5.60;99.90;;;;;;4939406;28;94792;-32
2023/03/29 01:36:59;;;;;;;4.40;4.00;;;5.60;99.90;;;;;;4939275;28;93973;-30
2023/03/29 01:39:25;;;;;;;7.25;4.60;;;5.70;99.90;;;;;;4938629;28;93833;-30
2023/03/29 01:42:19;;;;;;;6.95;4.05;;;5.60;99.90;;;;;;4938126;28;95835;-33
2023/03/29 01:45:06;;;;;;;5.57;4.93;;;5.70;99.90;;;;;;4912898;28;94668;-33
2023/03/29 01:48:01;;;;;;;6.13;3.63;;;5.60;99.90;;;;;;4939142;28;93599;-33
2023/03/29 01:50:27;;;;;;;4.97;4.20;;;5.60;99.90;;;;;;4938907;28;94504;-34
2023/03/29 01:53:01;;;;;;;6.22;4.18;;;5.60;99.90;;;;;;4937958;28;94534;-34
2023/03/29 01:55:40;;;;;;;10.23;5.35;;;5.60;99.90;;;;;;4939638;28;93357;-30
2023/03/29 01:58:08;;;;;;;5.75;4.95;;;5.60;99.90;;;;;;4939238;28;91381;-30
2023/03/29 02:00:35;;;;;;;4.95;4.00;;;5.60;99.90;;;;;;4938428;28;96063;-32
2023/03/29 02:03:08;;;;;;;5.38;4.88;;;5.60;99.90;;;;;;4937552;28;95208;-30
2023/03/29 02:05:36;;;;;;;8.32;5.93;;;5.60;99.90;;;;;;4937938;28;93151;-31
2023/03/29 02:08:04;;;;;;;8.05;5.53;;;5.60;99.90;;;;;;4937587;28;92906;-30
2023/03/29 02:10:31;;;;;;;10.55;6.80;;;5.60;99.90;;;;;;4938141;28;95026;-31
2023/03/29 02:12:57;;;;;;;8.75;5.82;;;5.60;99.90;;;;;;4938634;28;94194;-33
2023/03/29 02:15:24;;;;;;;10.90;7.30;;;5.60;99.90;;;;;;4921387;28;94425;-33
2023/03/29 02:17:50;;;;;;;7.95;6.25;;;5.60;99.90;;;;;;4937932;28;92124;-32
2023/03/29 02:20:40;;;;;;;10.20;6.43;;;5.60;99.90;;;;;;4938568;28;94102;-33
2023/03/29 02:23:17;;;;;;;10.07;7.25;;;5.70;99.90;;;;;;4931153;28;93623;-30
2023/03/29 02:25:44;;;;;;;12.32;7.97;;;5.70;99.90;;;;;;4938970;28;94731;-33
2023/03/29 02:28:10;;;;;;;13.27;7.53;;;5.70;99.90;;;;;;4938507;28;93403;-29
2023/03/29 02:30:45;;;;;;;14.52;8.65;;;5.60;99.90;;;;;;4937331;28;95979;-29
2023/03/29 02:33:20;;;;;;;9.55;6.93;;;5.60;99.90;;;;;;4938110;28;95488;-34
2023/03/29 02:35:57;;;;;;;10.05;7.60;;;5.60;99.90;;;;;;4938121;28;93242;-31
2023/03/29 02:38:26;;;;;;;10.57;8.75;;;5.60;99.90;;;;;;4937284;28;93086;-31
2023/03/29 02:40:54;;;;;;;14.18;8.57;;;5.60;99.90;;;;;;4937656;28;94912;-30
2023/03/29 02:43:21;;;;;;;10.13;7.00;;;5.60;99.90;;;;;;4937925;28;94631;-33
2023/03/29 02:45:48;;;;;;;15.73;8.27;;;5.60;99.90;;;;;;4937940;28;92959;-30
2023/03/29 02:48:17;;;;;;;12.32;9.05;;;5.60;99.90;;;;;;4938019;28;92454;-32
2023/03/29 02:50:46;;;;;;;15.10;8.70;;;5.60;99.90;;;;;;4937164;28;94224;-30
2023/03/29 02:53:19;;;;;;;10.25;8.30;;;5.60;99.90;;;;;;4919642;28;93643;-29
2023/03/29 02:55:45;;;;;;;10.05;7.57;;;5.60;99.90;;;;;;4937398;28;94156;-32
2023/03/29 02:58:14;;;;;;;11.25;7.95;;;5.60;99.90;;;;;;4936975;28;92232;-30
2023/03/29 03:00:43;;;;;;;;;;;5.60;99.90;;;;;;4937990;28;95261;-35
2023/03/29 03:03:10;;;;;;;11.65;8.65;;;5.60;99.90;;;;;;4938384;28;94159;-34
2023/03/29 03:05:37;;;;;;;12.35;9.10;;;5.60;99.90;;;;;;4938106;28;93075;-30
2023/03/29 03:08:04;;;;;;;15.75;9.70;;;5.60;99.90;;;;;;4937509;28;94658;-29
2023/03/29 03:10:32;;;;;;;11.45;9.38;;;5.60;99.90;;;;;;4937106;28;93603;-31
2023/03/29 03:12:57;;;;;;;15.13;9.13;;;5.70;99.90;;;;;;4919737;28;94474;-33
2023/03/29 03:15:23;;;;;;;14.70;10.88;;;5.60;99.90;;;;;;4937473;28;94505;-30
2023/03/29 03:17:48;;;;;;;17.10;10.75;;;5.70;99.90;;;;;;4935797;28;93611;-31
2023/03/29 03:20:14;;;;;;;19.23;10.50;;;5.70;99.90;;;;;;4918923;28;95644;-29
2023/03/29 03:22:49;;;;;;;13.45;9.20;;;5.70;99.90;;;;;;4936149;28;94755;-32
2023/03/29 03:25:20;;;;;;;13.40;9.75;;;5.60;99.90;;;;;;4937904;28;92770;-30
2023/03/29 03:27:47;;;;;;;11.93;9.30;;;5.60;99.90;;;;;;4936852;28;94771;-33
2023/03/29 03:30:15;;;;;;;14.20;9.18;;;5.60;99.90;;;;;;4937719;28;94622;-30
2023/03/29 03:32:42;;;;;;;17.83;11.00;;;5.60;99.90;;;;;;4936846;28;93971;-31
2023/03/29 03:35:08;;;;;;;12.90;9.77;;;5.60;99.90;;;;;;4936888;28;93726;-31
2023/03/29 03:37:34;;;;;;;20.20;10.30;;;5.60;99.90;;;;;;4937893;28;94174;-32
2023/03/29 03:40:00;;;;;;;10.65;9.40;;;5.60;99.90;;;;;;4936291;28;94995;-29
2023/03/29 03:42:28;;;;;;;13.13;10.35;;;5.60;99.90;;;;;;4936715;28;94965;-34
2023/03/29 03:44:54;;;;;;;;;;;5.60;99.90;;;;;;4936741;28;95016;-34
2023/03/29 03:47:20;;;;;;;12.35;8.82;;;5.70;99.90;;;;;;4939213;28;92737;-31
2023/03/29 03:49:46;;;;;;;16.30;10.55;;;5.70;99.90;;;;;;4937295;28;94697;-30
2023/03/29 03:52:12;;;;;;;15.07;10.27;;;5.70;99.90;;;;;;4939955;28;94136;-31
2023/03/29 03:54:37;;;;;;;16.92;10.30;;;5.70;99.90;;;;;;4940121;28;93136;-32
2023/03/29 03:57:03;;;;;;;15.13;9.52;;;5.70;99.90;;;;;;4939421;28;93797;-31
2023/03/29 03:59:29;;;;;;;12.52;9.48;;;5.70;99.90;;;;;;4940452;28;94495;-34
2023/03/29 04:01:54;;;;;;;14.40;10.93;;;5.70;99.90;;;;;;4922233;28;94263;-34
2023/03/29 04:04:21;;;;;;;14.27;10.27;;;5.70;99.90;;;;;;4940329;28;94654;-28
2023/03/29 04:06:47;;;;;;;12.00;8.15;;;5.70;99.90;;;;;;4921865;28;93491;-28
2023/03/29 04:09:12;;;;;;;11.98;9.90;;;5.80;99.90;;;;;;4940095;28;95797;-34
2023/03/29 04:11:38;;;;;;;17.65;10.73;;;5.70;99.90;;;;;;4939810;28;95149;-33
2023/03/29 04:14:04;;;;;;;12.93;9.80;;;5.70;99.90;;;;;;4939317;28;94901;-34
2023/03/29 04:16:30;;;;;;;15.15;10.73;;;5.80;99.90;;;;;;4940659;28;94760;-30
2023/03/29 04:18:55;;;;;;;16.10;11.65;;;5.80;99.90;;;;;;4938365;28;94983;-34
2023/03/29 04:21:21;;;;;;;13.52;9.13;;;5.80;99.90;;;;;;4939352;28;94168;-30
2023/03/29 04:23:47;;;;;;;20.67;10.45;;;5.80;99.90;;;;;;4939888;28;93959;-31
2023/03/29 04:26:14;;;;;;;15.52;10.93;;;5.80;99.90;;;;;;4939016;28;91765;-31
2023/03/29 04:28:40;;;;;;;12.57;9.95;;;5.70;99.90;;;;;;4939606;28;94630;-35
2023/03/29 04:31:13;;;;;;;17.75;11.23;;;5.80;99.90;;;;;;4939488;28;94531;-34
2023/03/29 04:33:39;;;;;;;16.60;10.32;;;5.70;99.90;;;;;;4939276;28;93099;-35
2023/03/29 04:36:06;;;;;;;14.20;9.98;;;5.70;99.90;;;;;;4938916;28;93278;-32
2023/03/29 04:38:34;;;;;;;15.30;12.00;;;5.70;99.90;;;;;;4939046;28;95693;-30
2023/03/29 04:41:01;;;;;;;15.57;10.13;;;5.70;99.90;;;;;;4938626;28;94704;-35
2023/03/29 04:43:28;;;;;;;13.50;10.73;;;5.70;99.90;;;;;;4940286;28;92877;-28
2023/03/29 04:45:55;;;;;;;14.33;10.63;;;5.70;99.90;;;;;;4938471;28;92966;-34
2023/03/29 04:48:21;;;;;;;12.43;9.48;;;5.70;99.90;;;;;;4921364;28;94629;-34
2023/03/29 04:50:47;;;;;;;13.05;10.18;;;5.70;99.90;;;;;;4939908;28;94053;-29
2023/03/29 04:53:12;;;;;;;12.32;9.38;;;5.70;99.90;;;;;;4938581;28;94054;-32
2023/03/29 04:55:38;;;;;;;14.23;10.43;;;5.70;99.90;;;;;;4939575;28;93121;-31
2023/03/29 04:58:04;;;;;;;12.23;10.27;;;5.70;99.90;;;;;;4920123;28;97341;-31
2023/03/29 05:00:30;;;;;;;14.93;10.88;;;5.70;99.90;;;;;;4938019;28;95671;-31
2023/03/29 05:02:56;;;;;;;13.05;9.25;;;5.70;99.90;;;;;;4938693;28;93067;-29
2023/03/29 05:05:22;;;;;;;13.00;11.32;;;5.70;99.90;;;;;;4939469;28;92534;-32
2023/03/29 05:07:48;;;;;;;9.85;8.68;;;5.70;99.90;;;;;;4939203;28;95026;-30
2023/03/29 05:10:14;;;;;;;16.35;11.73;;;5.70;99.90;;;;;;4922037;28;94270;-34
2023/03/29 05:12:39;;;;;;;18.40;10.88;;;5.70;99.90;;;;;;4938191;28;92890;-35
2023/03/29 05:15:07;;;;;;;18.63;11.45;;;5.70;99.90;;;;;;4939074;28;92996;-28
2023/03/29 05:17:33;;;;;;;19.52;10.55;;;5.70;99.90;;;;;;4938251;28;94757;-33
2023/03/29 05:19:59;;;;;;;17.70;10.50;;;5.80;99.90;;;;;;4938625;28;95030;-30
2023/03/29 05:22:25;;;;;;;24.33;11.52;;;5.80;99.90;;;;;;4938485;28;94227;-34
2023/03/29 05:24:51;;;;;;;12.82;9.25;;;5.80;99.90;;;;;;4938089;28;94135;-31
2023/03/29 05:27:17;;;;;;;13.50;10.10;;;5.80;99.90;;;;;;4939017;28;94519;-34
2023/03/29 05:29:43;;;;;;;15.25;10.15;;;5.80;99.90;;;;;;4938469;28;95204;-32
2023/03/29 05:32:09;;;;;;;17.33;11.40;;;5.80;99.90;;;;;;4938360;28;94452;-32
2023/03/29 05:34:35;;;;;;;16.30;11.80;;;5.70;99.90;;;;;;4938723;28;94193;-31
2023/03/29 05:37:01;;;;;;;14.93;11.88;;;5.70;99.90;;;;;;4937872;28;93569;-34
2023/03/29 05:39:27;;;;;;;20.13;11.38;;;5.70;99.90;;;;;;4938731;28;94929;-31
2023/03/29 05:41:53;;;;;;;18.83;12.55;;;5.70;99.90;;;;;;4938822;28;92681;-32
2023/03/29 05:44:19;;;;;;;16.15;12.63;;;5.70;99.90;;;;;;4938104;28;93940;-30
2023/03/29 05:46:45;;;;;;;14.15;11.98;;;5.60;99.90;;;;;;4937934;28;95920;-34
2023/03/29 05:49:11;;;;;;;20.27;11.60;;;5.60;99.90;;;;;;4937886;28;96182;-32
2023/03/29 05:51:36;;;;;;;13.55;10.73;;;5.60;99.90;;;;;;4937929;28;93535;-31
2023/03/29 05:54:02;;;;;;;15.77;12.98;;;5.60;99.90;;;;;;4938108;28;93154;-30
2023/03/29 05:56:28;;;;;;;21.52;12.75;;;5.60;99.90;;;;;;4937935;28;94606;-30
2023/03/29 05:58:55;;;;;;;17.65;12.88;;;5.60;99.90;;;;;;4938690;28;93236;-31
2023/03/29 06:01:23;;;;;;;20.33;12.75;;;5.60;99.90;;;;;;4938137;28;93633;-29
2023/03/29 06:03:49;;;;;;;18.05;10.65;;;5.60;99.90;;;;;;4937523;28;92890;-31
2023/03/29 06:06:15;;;;;;;16.80;11.05;;;5.60;99.90;;;;;;4937518;28;94995;-34
2023/03/29 06:08:42;;;;;;;16.98;11.73;;;5.60;99.90;;;;;;4937824;28;94352;-30
2023/03/29 06:11:09;;;;;;;20.15;13.38;;;5.60;99.90;;;;;;4919538;28;95198;-32
2023/03/29 06:13:36;;;;;;;16.33;12.10;;;5.60;99.90;;;;;;4937129;28;92195;-30
2023/03/29 06:16:03;;;;;;;16.13;12.13;;;5.60;99.90;;;;;;4937287;28;94789;-32
2023/03/29 06:18:29;;;;;;;19.58;12.13;;;5.60;99.90;;;;;;4937033;28;93864;-33
2023/03/29 06:20:54;;;;;;;14.77;11.10;;;5.60;99.90;;;;;;4937456;28;93376;-31
2023/03/29 06:23:22;;;;;;;21.50;11.73;;;5.60;99.90;;;;;;4937704;28;92141;-30
2023/03/29 06:25:50;;;;;;;15.48;11.60;;;5.60;99.90;;;;;;4937173;28;94622;-30
2023/03/29 06:28:17;;;;;;;15.65;11.15;;;5.70;99.90;;;;;;4937562;28;94278;-30
2023/03/29 06:30:43;;;;;;;15.13;11.98;;;5.70;99.90;;;;;;4938105;28;92585;-31
2023/03/29 06:33:09;;;;;;;12.52;11.38;;;5.70;99.90;;;;;;4937632;28;94784;-29
2023/03/29 06:35:35;;;;;;;17.15;12.13;;;5.70;99.90;;;;;;4937190;28;95031;-30
2023/03/29 06:38:02;;;;;;;17.60;10.73;;;5.70;99.90;;;;;;4937448;28;95101;-34
2023/03/29 06:40:28;;;;;;;17.77;12.45;;;5.80;99.90;;;;;;4938559;28;93119;-31
2023/03/29 06:42:56;;;;;;;16.60;9.88;;;5.80;99.90;;;;;;4936594;28;93479;-33
2023/03/29 06:45:23;;;;;;;14.48;11.57;;;5.80;99.90;;;;;;4937986;28;93671;-33
2023/03/29 06:47:49;;;;;;;15.73;10.52;;;5.80;99.90;;;;;;4936971;28;94285;-29
2023/03/29 06:50:16;;;;;;;19.05;11.35;;;5.80;99.90;;;;;;4937342;28;93972;-34
2023/03/29 06:52:42;;;;;;;17.85;12.27;;;5.90;99.90;;;;;;4937189;28;92620;-34
2023/03/29 06:55:10;;;;;;;16.63;11.20;;;5.90;99.90;;;;;;4937679;28;94713;-29
2023/03/29 06:57:36;;;;;;;17.13;12.90;;;5.90;99.90;;;;;;4936511;28;94718;-31
2023/03/29 07:00:12;;;;;;;149.57;43.30;;;5.90;99.90;;;;;;4935577;28;93086;-31
2023/03/29 07:02:38;;;;;;;13.85;11.20;;;6.00;99.90;;;;;;4934905;28;93815;-31
2023/03/29 07:05:10;;;;;;;15.00;10.95;;;6.10;99.90;;;;;;4936152;28;94171;-29
2023/03/29 07:07:52;;;;;;;15.65;11.45;;;6.10;99.90;;;;;;4937658;28;96501;-30
2023/03/29 07:10:20;;;;;;;17.60;11.00;;;6.10;99.90;;;;;;4937306;28;94462;-35
2023/03/29 07:12:47;;;;;;;22.65;11.57;;;6.10;99.90;;;;;;4937096;28;93993;-31
2023/03/29 07:15:13;;;;;;;14.18;10.77;;;6.20;99.90;;;;;;4937427;28;94228;-31
2023/03/29 07:17:38;;;;;;;15.77;12.15;;;6.20;99.90;;;;;;4937224;28;94847;-29
2023/03/29 07:20:11;;;;;;;12.80;11.23;;;6.20;99.90;;;;;;4937694;28;93144;-29
2023/03/29 07:22:37;;;;;;;12.77;10.88;;;6.20;99.90;;;;;;4936807;28;94555;-33
2023/03/29 07:25:03;;;;;;;14.07;11.02;;;6.20;99.90;;;;;;4917821;28;97087;-31
2023/03/29 07:27:28;;;;;;;16.95;11.57;;;6.20;99.90;;;;;;4936058;28;95365;-30
2023/03/29 07:29:55;;;;;;;13.23;10.73;;;6.30;99.90;;;;;;4937082;28;94577;-31
2023/03/29 07:32:21;;;;;;;17.10;10.50;;;6.30;99.90;;;;;;4936997;28;92168;-31
2023/03/29 07:34:48;;;;;;;15.38;9.77;;;6.30;99.90;;;;;;4936176;28;93913;-30
2023/03/29 07:37:14;;;;;;;17.70;10.65;;;6.30;99.90;;;;;;4937234;28;94195;-34
2023/03/29 07:39:39;;;;;;;10.40;8.65;;;6.30;99.90;;;;;;4936576;28;93193;-35
2023/03/29 07:42:05;;;;;;;17.60;11.20;;;6.40;99.90;;;;;;4938032;28;93993;-29
2023/03/29 07:44:32;;;;;;;10.95;9.20;;;6.40;99.90;;;;;;4936969;28;93384;-33
2023/03/29 07:47:00;;;;;;;11.52;9.30;;;6.40;99.90;;;;;;4936513;28;94526;-31
2023/03/29 07:49:26;;;;;;;12.73;8.77;;;6.40;99.90;;;;;;4936681;28;93034;-35
2023/03/29 07:51:53;;;;;;;11.70;9.07;;;6.50;99.90;;;;;;4937055;28;92980;-31
2023/03/29 07:54:19;;;;;;;15.45;9.30;;;6.60;99.90;;;;;;4936876;28;94769;-32
2023/03/29 07:56:46;;;;;;;13.50;10.15;;;6.60;99.90;;;;;;4936845;28;94457;-31
2023/03/29 07:59:12;;;;;;;11.13;8.85;;;6.60;99.90;;;;;;4936681;28;93129;-34
2023/03/29 08:01:39;;;;;;;16.52;9.10;;;6.60;99.90;;;;;;4937120;28;92174;-34
2023/03/29 08:04:06;;;;;;;14.10;8.70;;;6.70;99.90;;;;;;4936703;28;94287;-33
2023/03/29 08:06:33;;;;;;;17.02;10.10;;;6.70;99.90;;;;;;4937346;28;94957;-31
2023/03/29 08:08:59;;;;;;;16.02;9.00;;;6.70;99.90;;;;;;4936563;28;92781;-30
2023/03/29 08:11:24;;;;;;;10.90;8.50;;;6.70;99.90;;;;;;4936991;28;94343;-33
2023/03/29 08:13:50;;;;;;;11.15;8.18;;;6.80;99.90;;;;;;4936393;28;96118;-31
2023/03/29 08:16:16;;;;;;;10.38;8.45;;;6.80;99.90;;;;;;4919011;28;94931;-29
2023/03/29 08:18:42;;;;;;;10.68;9.05;;;6.80;99.90;;;;;;4923984;28;92479;-30
2023/03/29 08:21:08;;;;;;;14.43;8.65;;;6.80;99.90;;;;;;4934817;28;94783;-30
2023/03/29 08:23:34;;;;;;;13.60;8.73;;;6.80;99.90;;;;;;4933177;28;94287;-33
2023/03/29 08:26:01;;;;;;;10.85;8.93;;;6.90;99.90;;;;;;4932735;28;94824;-34
2023/03/29 08:28:26;;;;;;;10.40;7.72;;;6.90;99.90;;;;;;4934769;28;94504;-31
2023/03/29 08:30:52;;;;;;;11.73;8.10;;;6.90;99.90;;;;;;4934428;28;92487;-31
2023/03/29 08:33:18;;;;;;;9.02;7.93;;;7.00;99.90;;;;;;4934391;28;95553;-31
2023/03/29 08:35:44;;;;;;;13.32;9.43;;;7.00;99.90;;;;;;4934442;28;95547;-32
2023/03/29 08:38:09;;;;;;;12.35;7.70;;;7.10;99.90;;;;;;4936566;28;93621;-35
2023/03/29 08:40:36;;;;;;;10.80;8.68;;;7.10;99.90;;;;;;4936784;28;92679;-33
2023/03/29 08:43:15;;;;;;;18.52;9.40;;;7.10;99.90;;;;;;4936961;28;94370;-35
2023/03/29 08:46:02;;;;;;;15.20;7.80;;;7.10;99.90;;;;;;4937284;28;94672;-31
2023/03/29 08:48:32;;;;;;;12.23;8.25;;;7.20;99.90;;;;;;4937825;28;93342;-30
2023/03/29 08:51:17;;;;;;;11.20;8.35;;;7.30;99.90;;;;;;4937959;28;92954;-35
2023/03/29 08:53:51;;;;;;;11.15;7.93;;;7.50;99.90;;;;;;4937676;28;94879;-30
2023/03/29 08:56:23;;;;;;;10.73;7.75;;;7.60;99.90;;;;;;4937704;28;94022;-31
2023/03/29 08:58:51;;;;;;;9.85;8.40;;;7.60;99.90;;;;;;4936889;28;93843;-32
2023/03/29 09:01:17;;;;;;;11.98;7.75;;;7.80;99.90;;;;;;4937594;28;93592;-30
2023/03/29 09:03:47;;;;;;;9.68;7.95;;;8.00;99.90;;;;;;4936504;28;95479;-32
2023/03/29 09:06:14;;;;;;;10.38;9.27;;;8.20;99.90;;;;;;4937497;28;95366;-33
2023/03/29 09:08:44;;;;;;;11.13;7.30;;;8.20;99.90;;;;;;4937091;28;93290;-32
2023/03/29 09:11:38;;;;;;;11.85;8.15;;;8.10;99.90;;;;;;4936905;28;94667;-32
2023/03/29 09:14:22;;;;;;;11.00;9.02;;;8.30;99.90;;;;;;4936279;28;95945;-31
2023/03/29 09:17:07;;;;;;;9.10;8.15;;;8.30;99.90;;;;;;4937227;28;94517;-33
2023/03/29 09:19:38;;;;;;;15.23;8.50;;;8.50;99.90;;;;;;4937205;28;95212;-33
2023/03/29 09:22:37;;;;;;;12.10;9.23;;;8.60;99.90;;;;;;4937692;28;93207;-30
2023/03/29 09:25:23;;;;;;;8.75;7.85;;;8.70;99.90;;;;;;4937037;28;93240;-31
2023/03/29 09:28:24;;;;;;;9.93;8.18;;;8.90;99.90;;;;;;4936343;28;94206;-31
2023/03/29 09:31:26;;;;;;;8.15;6.97;;;8.90;99.90;;;;;;4917287;28;94532;-35
2023/03/29 09:34:00;;;;;;;14.88;9.25;;;9.10;99.90;;;;;;4891984;28;93732;-30
2023/03/29 09:36:37;;;;;;;9.63;7.40;;;9.20;99.90;;;;;;4917424;28;95414;-30
2023/03/29 09:39:04;;;;;;;9.82;7.63;;;9.30;99.90;;;;;;4917373;28;93910;-29
2023/03/29 09:41:40;;;;;;;15.32;9.55;;;9.30;99.90;;;;;;4917282;28;93381;-30
2023/03/29 09:44:12;;;;;;;8.93;7.72;;;9.30;99.90;;;;;;4917291;28;94349;-33
2023/03/29 09:46:42;;;;;;;12.65;8.68;;;9.40;99.90;;;;;;4915937;28;93903;-31
2023/03/29 09:49:17;;;;;;;11.10;8.02;;;9.50;99.90;;;;;;4916076;28;95594;-30
2023/03/29 09:51:46;;;;;;;13.55;7.82;;;9.60;99.90;;;;;;4917711;28;93278;-32
2023/03/29 09:54:12;;;;;;;11.90;8.60;;;9.90;99.90;;;;;;4917342;28;93512;-34
2023/03/29 09:56:38;;;;;;;17.70;9.40;;;10.00;99.90;;;;;;4915936;28;96504;-34
2023/03/29 09:59:05;;;;;;;11.63;8.15;;;10.10;99.90;;;;;;4916891;28;95446;-31
2023/03/29 10:01:40;;;;;;;10.23;7.78;;;10.00;99.90;;;;;;4935032;28;93713;-32
2023/03/29 10:04:07;;;;;;;9.45;8.35;;;9.90;99.90;;;;;;4934360;28;92744;-33
2023/03/29 10:06:34;;;;;;;9.47;7.73;;;10.10;99.90;;;;;;4936263;28;93738;-33
2023/03/29 10:09:01;;;;;;;9.25;8.00;;;10.10;99.90;;;;;;4935779;28;94468;-31
2023/03/29 10:11:34;;;;;;;11.88;7.97;;;10.00;99.90;;;;;;4936183;28;93261;-32
2023/03/29 10:14:11;;;;;;;10.60;8.43;;;10.00;99.90;;;;;;4918584;28;94226;-30
2023/03/29 10:16:44;;;;;;;10.10;8.52;;;10.10;99.90;;;;;;4935985;28;94938;-32
2023/03/29 10:19:22;;;;;;;11.13;8.45;;;10.20;99.90;;;;;;4936477;28;93858;-29
2023/03/29 10:21:50;;;;;;;9.80;7.83;;;10.20;99.90;;;;;;4936229;28;94062;-32
2023/03/29 10:24:20;;;;;;;11.77;8.20;;;10.30;99.90;;;;;;4936343;28;93131;-31
2023/03/29 10:26:47;;;;;;;9.30;7.88;;;10.40;99.90;;;;;;4918318;28;94366;-29
2023/03/29 10:29:14;;;;;;;12.33;9.40;;;10.40;99.90;;;;;;4935321;28;95858;-30
2023/03/29 10:31:41;;;;;;;10.77;9.75;;;10.40;99.90;;;;;;4935555;28;93108;-32
2023/03/29 10:34:11;;;;;;;14.50;10.00;;;10.20;99.90;;;;;;4936448;28;92658;-31
2023/03/29 10:36:40;;;;;;;12.82;8.38;;;10.30;99.90;;;;;;4934860;28;95119;-33
2023/03/29 10:39:09;;;;;;;10.57;9.15;;;10.40;99.90;;;;;;4936550;28;94506;-33
2023/03/29 10:41:35;;;;;;;10.88;8.95;;;10.40;99.90;;;;;;4936759;28;94163;-31
2023/03/29 10:44:01;;;;;;;12.88;10.63;;;10.50;99.90;;;;;;4917684;28;92202;-33
2023/03/29 10:46:30;;;;;;;13.05;9.82;;;10.50;99.90;;;;;;4934509;28;95769;-34
2023/03/29 10:49:04;;;;;;;12.60;9.27;;;10.60;99.90;;;;;;4935129;28;95931;-32
2023/03/29 10:51:33;;;;;;;13.15;10.20;;;10.60;99.90;;;;;;4935956;28;93298;-30
2023/03/29 10:53:59;;;;;;;;;;;10.80;99.90;;;;;;4934875;28;93297;-31
2023/03/29 10:56:40;;;;;;;12.20;10.18;;;11.00;99.90;;;;;;4936805;28;94764;-32
2023/03/29 10:59:31;;;;;;;18.90;10.02;;;11.00;99.90;;;;;;4933698;28;94932;-34
2023/03/29 11:02:18;;;;;;;14.20;10.07;;;11.10;99.90;;;;;;4933482;28;94551;-32
2023/03/29 11:04:56;;;;;;;10.30;9.43;;;11.10;99.90;;;;;;4933532;28;92481;-30
2023/03/29 11:08:02;;;;;;;12.70;9.48;;;11.20;99.90;;;;;;4933547;28;94575;-32
2023/03/29 11:10:34;;;;;;;13.05;9.65;;;11.30;99.90;;;;;;4923783;28;94445;-34
2023/03/29 11:13:31;;;;;;;14.45;9.38;;;11.40;99.90;;;;;;4934787;28;94350;-32
2023/03/29 11:16:16;;;;;;;12.93;9.32;;;11.30;99.90;;;;;;4934981;28;92355;-33
2023/03/29 11:19:10;;;;;;;12.82;9.27;;;11.40;99.90;;;;;;4934675;28;94670;-33
2023/03/29 11:21:57;;;;;;;10.52;9.52;;;11.50;99.90;;;;;;4935077;28;95293;-31
2023/03/29 11:24:42;;;;;;;12.35;9.60;;;11.50;99.90;;;;;;4935074;28;93660;-34
2023/03/29 11:27:16;;;;;;;17.67;8.88;;;11.60;99.90;;;;;;4934173;28;93578;-33
2023/03/29 11:29:55;;;;;;;15.43;10.02;;;11.70;99.90;;;;;;4933565;28;94615;-33
2023/03/29 11:32:27;;;;;;;13.00;9.60;;;11.80;99.90;;;;;;4934620;28;94581;-33
2023/03/29 11:35:23;;;;;;;12.18;9.52;;;12.00;99.90;;;;;;4935415;28;92958;-33
2023/03/29 11:38:05;;;;;;;13.40;9.18;;;12.10;99.90;;;;;;4934489;28;94276;-32
2023/03/29 11:40:47;;;;;;;10.43;9.32;;;12.10;99.90;;;;;;4934949;28;96224;-32
2023/03/29 11:43:31;;;;;;;16.23;9.50;;;12.10;99.90;;;;;;4934669;28;94163;-32
2023/03/29 11:46:02;;;;;;;13.40;9.57;;;12.00;99.90;;;;;;4934513;28;93349;-32
2023/03/29 11:48:33;;;;;;;10.95;9.75;;;12.00;99.90;;;;;;4935279;28;93950;-35
2023/03/29 11:51:06;;;;;;;12.50;10.13;;;12.20;99.90;;;;;;4934915;28;94319;-30
2023/03/29 11:53:50;;;;;;;12.70;9.85;;;12.30;99.90;;;;;;4933734;28;95045;-33
2023/03/29 11:59:15;;;;;;;11.77;9.55;;;12.40;99.90;;;;;;4932442;28;94853;-30
2023/03/29 12:01:49;;;;;;;10.30;9.27;;;12.50;99.90;;;;;;4934483;28;94788;-34
2023/03/29 12:04:23;;;;;;;15.38;8.45;;;12.50;99.90;;;;;;4934656;28;94405;-30
2023/03/29 12:07:10;;;;;;;12.25;9.18;;;12.60;99.90;;;;;;4934158;28;93479;-31
2023/03/29 12:09:52;;;;;;;11.15;9.77;;;12.80;99.90;;;;;;4934044;28;94181;-29
2023/03/29 12:12:27;;;;;;;14.27;9.77;;;12.90;99.90;;;;;;4938200;28;94700;-34
2023/03/29 12:15:04;;;;;;;10.82;8.77;;;12.70;99.90;;;;;;4937508;28;96023;-32
2023/03/29 12:17:36;;;;;;;10.00;8.38;;;12.90;99.90;;;;;;4937631;28;93024;-33
2023/03/29 12:20:05;;;;;;;11.70;9.18;;;12.90;99.90;;;;;;4937685;28;94718;-30
2023/03/29 12:22:32;;;;;;;12.13;8.77;;;12.80;99.90;;;;;;4937489;28;94128;-31
2023/03/29 12:24:59;;;;;;;15.27;10.05;;;12.90;99.90;;;;;;4938108;28;94708;-34
2023/03/29 12:27:38;;;;;;;10.00;8.18;;;13.00;99.90;;;;;;4937736;28;94647;-34
2023/03/29 12:30:28;;;;;;;11.40;8.68;;;13.20;99.90;;;;;;4937662;28;92175;-30
2023/03/29 12:33:24;;;;;;;15.40;8.95;;;13.20;99.90;;;;;;4936664;28;96045;-33
2023/03/29 12:35:51;;;;;;;8.48;7.65;;;13.30;99.90;;;;;;4937478;28;95551;-31
2023/03/29 12:38:22;;;;;;;12.98;9.50;;;13.50;99.90;;;;;;4938263;28;94099;-30
2023/03/29 12:40:55;;;;;;;12.88;9.48;;;13.50;99.90;;;;;;4937457;28;93241;-34
2023/03/29 12:43:31;;;;;;;11.23;9.10;;;13.40;99.90;;;;;;4937056;28;94737;-34
2023/03/29 12:46:05;;;;;;;13.25;8.48;;;13.50;99.90;;;;;;4937964;28;94587;-29
2023/03/29 12:48:31;;;;;;;11.88;9.50;;;13.40;99.90;;;;;;4938175;28;93038;-32
2023/03/29 12:51:02;;;;;;;14.40;10.38;;;13.40;99.90;;;;;;4938143;28;92055;-32
2023/03/29 12:53:39;;;;;;;15.15;9.70;;;13.30;99.90;;;;;;4936912;28;94684;-32
2023/03/29 12:56:07;;;;;;;15.27;9.70;;;13.30;99.90;;;;;;4937606;28;94532;-29
2023/03/29 12:58:38;;;;;;;12.48;8.73;;;13.30;99.90;;;;;;4937426;28;93586;-30
2023/03/29 13:01:04;;;;;;;10.63;9.30;;;13.20;99.90;;;;;;4937604;28;94773;-33
2023/03/29 13:03:38;;;;;;;14.52;11.30;;;13.20;99.90;;;;;;4937381;28;94305;-31
2023/03/29 13:06:08;;;;;;;11.40;9.55;;;13.20;99.90;;;;;;4936747;28;94571;-30